Providence, Rhode Island
Current Conditions -  °F | °C
As of 7:51 PM on Monday 24 Nov 2014 (Local Time) from KPVD Reporting Station
Few Clouds Few Clouds  
Wind Chill: 16°   Ceiling: Unl
Heat Index: 16°   Visibility: 10mi
Dew Point: 13°   Wind: 17mph
Humidity: 83%   Direction: 220°SW
Pressure: 29.69"   Gusts: 29mph
Location:  41.82°N, 71.41°W
Report Text: KPVD 250051Z 22015G25KT 10SM FEW016 16/13 A2969 RMK AO2 PK WND 22031/2355 SLP054 T01610133
Loading
Personal Weather Stations






























Interactive Weather Map New forecast layout! Learn more

10-Day Weather Forecast

Advertisements
Track Severe Weather on mobile